createdAt,value
2023-03-04T00:00:16.629Z,4.50
2023-03-04T00:02:43.162Z,4.40
2023-03-04T00:05:09.862Z,4.50
2023-03-04T00:07:36.776Z,4.30
2023-03-04T00:10:03.865Z,3.67
2023-03-04T00:12:30.378Z,4.40
2023-03-04T00:14:57.073Z,4.30
2023-03-04T00:17:24.168Z,4.13
2023-03-04T00:19:50.660Z,4.60
2023-03-04T00:22:17.187Z,3.97
2023-03-04T00:24:43.726Z,4.43
2023-03-04T00:27:10.335Z,4.27
2023-03-04T00:29:36.996Z,4.13
2023-03-04T00:32:03.726Z,4.47
2023-03-04T00:34:32.766Z,4.10
2023-03-04T00:37:02.218Z,4.53
2023-03-04T00:39:28.764Z,3.40
2023-03-04T00:41:55.740Z,4.40
2023-03-04T00:44:22.253Z,4.50
2023-03-04T00:46:49.173Z,5.37
2023-03-04T00:49:15.842Z,5.20
2023-03-04T00:51:42.367Z,4.13
2023-03-04T00:54:08.844Z,4.10
2023-03-04T00:56:35.485Z,4.80
2023-03-04T00:59:02.156Z,3.97
2023-03-04T01:01:31.396Z,4.47
2023-03-04T01:03:57.958Z,4.20
2023-03-04T01:06:24.526Z,3.60
2023-03-04T01:08:51.042Z,4.47
2023-03-04T01:11:17.703Z,3.53
2023-03-04T01:13:44.302Z,3.97
2023-03-04T01:16:11.320Z,3.90
2023-03-04T01:18:38.226Z,4.43
2023-03-04T01:21:05.487Z,3.77
2023-03-04T01:23:32.685Z,3.87
2023-03-04T01:25:59.241Z,3.80
2023-03-04T01:28:25.793Z,3.97
2023-03-04T01:30:52.446Z,4.40
2023-03-04T01:33:19.418Z,3.53
2023-03-04T01:35:46.222Z,5.37
2023-03-04T01:38:13.305Z,3.97
2023-03-04T01:40:40.099Z,4.23
2023-03-04T01:43:06.685Z,4.73
2023-03-04T01:45:34.469Z,4.33
2023-03-04T01:48:01.027Z,4.17
2023-03-04T01:50:32.539Z,3.47
2023-03-04T01:52:59.587Z,4.23
2023-03-04T01:55:30.717Z,3.80
2023-03-04T01:57:57.665Z,4.43
2023-03-04T02:00:26.470Z,4.30
2023-03-04T02:02:58.289Z,4.00
2023-03-04T02:05:25.074Z,4.37
2023-03-04T02:07:54.762Z,4.20
2023-03-04T02:10:21.871Z,4.80
2023-03-04T02:12:48.921Z,4.97
2023-03-04T02:15:15.497Z,4.00
2023-03-04T02:17:42.080Z,3.93
2023-03-04T02:20:20.796Z,4.43
2023-03-04T02:23:13.280Z,4.90
2023-03-04T02:25:48.199Z,3.77
2023-03-04T02:28:15.095Z,3.90
2023-03-04T02:30:41.702Z,5.80
2023-03-04T02:33:16.317Z,6.40
2023-03-04T02:35:43.112Z,4.77
2023-03-04T02:38:11.403Z,4.17
2023-03-04T02:40:40.361Z,3.73
2023-03-04T02:43:07.313Z,3.60
2023-03-04T02:45:46.034Z,4.33
2023-03-04T02:48:14.328Z,4.30
2023-03-04T02:50:48.307Z,3.67
2023-03-04T02:53:16.013Z,5.13
2023-03-04T02:55:43.733Z,5.70
2023-03-04T02:58:10.918Z,5.57
2023-03-04T03:00:38.142Z,5.40
2023-03-04T03:03:05.038Z,4.20
2023-03-04T03:05:34.763Z,3.90
2023-03-04T03:08:01.382Z,4.33
2023-03-04T03:10:28.096Z,3.73
2023-03-04T03:12:54.637Z,6.13
2023-03-04T03:15:21.436Z,3.73
2023-03-04T03:17:48.097Z,4.03
2023-03-04T03:20:16.088Z,3.93
2023-03-04T03:22:43.335Z,3.73
2023-03-04T03:25:12.787Z,5.10
2023-03-04T03:27:39.586Z,6.00
2023-03-04T03:30:08.297Z,5.07
2023-03-04T03:32:34.892Z,3.97
2023-03-04T03:35:01.506Z,3.70
2023-03-04T03:37:27.992Z,4.57
2023-03-04T03:39:54.577Z,3.07
2023-03-04T03:42:21.115Z,3.60
2023-03-04T03:44:47.726Z,2.87
2023-03-04T03:47:14.374Z,3.20
2023-03-04T03:49:40.912Z,3.30
2023-03-04T03:52:08.462Z,3.03
2023-03-04T03:54:35.346Z,3.07
2023-03-04T03:57:01.914Z,3.70
2023-03-04T03:59:28.459Z,2.90
2023-03-04T04:01:55.090Z,3.60
2023-03-04T04:04:21.756Z,3.83
2023-03-04T04:06:48.283Z,3.00
2023-03-04T04:09:14.879Z,3.27
2023-03-04T04:11:41.472Z,3.90
2023-03-04T04:14:11.937Z,4.03
2023-03-04T04:16:38.997Z,3.53
2023-03-04T04:19:05.579Z,3.90
2023-03-04T04:21:32.119Z,3.50
2023-03-04T04:23:58.741Z,3.33
2023-03-04T04:26:25.269Z,4.20
2023-03-04T04:28:51.806Z,4.67
2023-03-04T04:31:18.326Z,3.60
2023-03-04T04:33:45.039Z,3.03
2023-03-04T04:36:14.986Z,3.43
2023-03-04T04:38:41.502Z,3.83
2023-03-04T04:41:19.771Z,3.83
2023-03-04T04:43:46.387Z,3.63
2023-03-04T04:46:12.902Z,3.77
2023-03-04T04:48:39.416Z,4.03
2023-03-04T04:51:08.254Z,3.73
2023-03-04T04:53:34.770Z,3.70
2023-03-04T04:56:01.435Z,3.47
2023-03-04T04:58:27.945Z,3.23
2023-03-04T05:00:57.040Z,3.07
2023-03-04T05:03:23.759Z,2.67
2023-03-04T05:05:50.349Z,3.33
2023-03-04T05:08:17.063Z,3.13
2023-03-04T05:10:43.531Z,2.50
2023-03-04T05:13:10.048Z,3.40
2023-03-04T05:15:38.491Z,2.70
2023-03-04T05:18:05.039Z,2.93
2023-03-04T05:20:31.520Z,4.17
2023-03-04T05:22:58.024Z,5.37
2023-03-04T05:25:24.499Z,5.30
2023-03-04T05:27:51.111Z,4.30
2023-03-04T05:30:17.912Z,3.03
2023-03-04T05:32:44.442Z,3.10
2023-03-04T05:35:11.077Z,2.93
2023-03-04T05:37:37.679Z,2.93
2023-03-04T05:40:05.374Z,3.40
2023-03-04T05:42:31.843Z,3.70
2023-03-04T05:44:58.350Z,5.97
2023-03-04T05:47:25.403Z,4.70
2023-03-04T05:49:51.909Z,3.10
2023-03-04T05:52:18.385Z,3.20
2023-03-04T05:54:46.374Z,3.33
2023-03-04T05:57:15.044Z,3.53
2023-03-04T05:59:41.656Z,3.23
2023-03-04T06:02:08.527Z,2.97
2023-03-04T06:04:37.509Z,3.33
2023-03-04T06:07:04.037Z,3.17
2023-03-04T06:09:30.585Z,2.60
2023-03-04T06:11:57.078Z,2.83
2023-03-04T06:14:23.598Z,3.00
2023-03-04T06:16:50.161Z,3.00
2023-03-04T06:19:16.857Z,2.70
2023-03-04T06:21:43.395Z,2.77
2023-03-04T06:24:10.092Z,3.30
2023-03-04T06:26:36.597Z,2.73
2023-03-04T06:29:04.172Z,2.57
2023-03-04T06:31:31.531Z,2.33
2023-03-04T06:33:58.256Z,2.37
2023-03-04T06:36:24.780Z,3.50
2023-03-04T06:38:51.308Z,2.37
2023-03-04T06:41:17.869Z,2.60
2023-03-04T06:43:44.395Z,2.40
2023-03-04T06:46:11.377Z,2.67
2023-03-04T06:48:37.961Z,2.43
2023-03-04T06:51:11.773Z,2.60
2023-03-04T06:53:39.542Z,2.70
2023-03-04T06:56:06.703Z,3.10
2023-03-04T06:58:36.339Z,2.60
2023-03-04T07:01:19.720Z,2.40
2023-03-04T07:03:49.934Z,2.90
2023-03-04T07:08:59.441Z,2.40
2023-03-04T07:11:26.664Z,2.53
2023-03-04T07:13:53.379Z,2.60
2023-03-04T07:16:22.648Z,2.27
2023-03-04T07:18:49.745Z,3.43
2023-03-04T07:21:17.261Z,3.07
2023-03-04T07:23:47.041Z,2.40
2023-03-04T07:26:13.779Z,2.30
2023-03-04T07:28:40.438Z,2.40
2023-03-04T07:31:20.765Z,2.93
2023-03-04T07:33:49.597Z,2.70
2023-03-04T07:36:16.246Z,2.50
2023-03-04T07:38:48.013Z,2.90
2023-03-04T07:41:14.907Z,2.33
2023-03-04T07:43:41.907Z,2.53
2023-03-04T07:46:09.612Z,2.43
2023-03-04T07:48:37.210Z,2.67
2023-03-04T07:51:14.405Z,2.20
2023-03-04T07:53:43.001Z,3.60
2023-03-04T07:56:14.062Z,2.90
2023-03-04T07:58:40.866Z,2.53
2023-03-04T08:01:16.195Z,2.50
2023-03-04T08:03:43.116Z,3.23
2023-03-04T08:06:12.539Z,3.47
2023-03-04T08:08:39.250Z,3.50
2023-03-04T08:11:12.610Z,3.13
2023-03-04T08:13:39.352Z,2.43
2023-03-04T08:16:06.823Z,2.70
2023-03-04T08:18:33.754Z,2.67
2023-03-04T08:21:00.623Z,2.30
2023-03-04T08:23:27.596Z,2.40
2023-03-04T08:25:55.662Z,2.87
2023-03-04T08:28:22.259Z,2.40
2023-03-04T08:30:53.897Z,2.97
2023-03-04T08:33:20.601Z,2.73
2023-03-04T08:35:47.244Z,2.50
2023-03-04T08:38:13.852Z,2.07
2023-03-04T08:40:40.750Z,2.23
2023-03-04T08:43:07.289Z,3.00
2023-03-04T08:45:33.798Z,2.53
2023-03-04T08:48:00.340Z,2.40
2023-03-04T08:50:27.568Z,2.67
2023-03-04T08:52:54.173Z,2.97
2023-03-04T08:55:20.910Z,2.77
2023-03-04T08:57:47.525Z,2.20
2023-03-04T09:00:14.547Z,1.90
2023-03-04T09:02:41.139Z,2.77
2023-03-04T09:05:08.652Z,2.70
2023-03-04T09:07:35.224Z,2.77
2023-03-04T09:10:01.831Z,2.30
2023-03-04T09:12:28.536Z,2.33
2023-03-04T09:15:09.905Z,2.70
2023-03-04T09:17:40.622Z,2.70
2023-03-04T09:20:12.661Z,1.97
2023-03-04T09:22:40.644Z,2.73
2023-03-04T09:25:12.689Z,2.60
2023-03-04T09:27:39.614Z,2.30
2023-03-04T09:30:07.318Z,3.20
2023-03-04T09:32:33.884Z,2.10
2023-03-04T09:35:00.469Z,2.57
2023-03-04T09:37:27.070Z,2.80
2023-03-04T09:39:53.654Z,2.30
2023-03-04T09:42:28.427Z,2.07
2023-03-04T09:44:55.792Z,2.07
2023-03-04T09:47:24.921Z,2.53
2023-03-04T09:50:01.602Z,2.50
2023-03-04T09:52:43.492Z,2.67
2023-03-04T09:55:34.232Z,2.33
2023-03-04T09:58:15.296Z,2.03
2023-03-04T10:00:59.587Z,2.10
2023-03-04T10:03:34.491Z,2.63
2023-03-04T10:06:04.912Z,2.73
2023-03-04T10:08:49.950Z,2.60
2023-03-04T10:11:28.086Z,2.40
2023-03-04T10:14:03.448Z,2.00
2023-03-04T10:16:39.305Z,2.00
2023-03-04T10:19:15.074Z,2.33
2023-03-04T10:21:51.319Z,1.87
2023-03-04T10:24:25.381Z,1.60
2023-03-04T10:26:56.621Z,1.80
2023-03-04T10:29:24.837Z,1.80
2023-03-04T10:31:51.648Z,2.20
2023-03-04T10:34:18.905Z,2.07
2023-03-04T10:36:56.595Z,1.90
2023-03-04T10:39:26.998Z,1.67
2023-03-04T10:42:15.561Z,2.00
2023-03-04T10:44:56.255Z,1.87
2023-03-04T10:47:30.041Z,1.67
2023-03-04T10:50:02.173Z,1.83
2023-03-04T10:52:36.362Z,1.80
2023-03-04T10:55:06.777Z,1.70
2023-03-04T10:57:36.683Z,1.70
2023-03-04T11:00:09.151Z,1.60
2023-03-04T11:02:36.655Z,1.63
2023-03-04T11:05:18.206Z,2.00
2023-03-04T11:08:05.391Z,2.03
2023-03-04T11:10:43.929Z,2.00
2023-03-04T11:13:18.775Z,2.20
2023-03-04T11:15:58.678Z,1.90
2023-03-04T11:18:50.769Z,1.70
2023-03-04T11:21:21.036Z,2.00
2023-03-04T11:23:54.434Z,2.20
2023-03-04T11:26:45.797Z,1.90
2023-03-04T11:29:21.565Z,1.80
2023-03-04T11:32:00.855Z,2.00
2023-03-04T11:34:27.487Z,1.40
2023-03-04T11:37:10.258Z,1.60
2023-03-04T11:40:03.773Z,1.50
2023-03-04T11:42:38.996Z,1.40
2023-03-04T11:45:27.891Z,1.73
2023-03-04T11:48:28.554Z,1.70
2023-03-04T11:51:13.001Z,2.00
2023-03-04T11:53:53.931Z,2.00
2023-03-04T11:56:43.572Z,1.63
2023-03-04T11:59:16.225Z,1.50
2023-03-04T12:02:24.869Z,2.13
2023-03-04T12:05:05.002Z,1.60
2023-03-04T12:07:43.750Z,1.77
2023-03-04T12:10:22.638Z,1.80
2023-03-04T12:13:11.990Z,1.60
2023-03-04T12:15:46.888Z,1.50
2023-03-04T12:18:20.540Z,1.23
2023-03-04T12:21:22.639Z,1.90
2023-03-04T12:24:10.914Z,1.80
2023-03-04T12:26:55.117Z,1.97
2023-03-04T12:29:43.845Z,1.87
2023-03-04T12:32:32.124Z,1.63
2023-03-04T12:35:03.612Z,1.57
2023-03-04T12:37:51.616Z,1.87
2023-03-04T12:40:36.310Z,3.00
2023-03-04T12:43:30.856Z,1.97
2023-03-04T12:46:11.936Z,2.83
2023-03-04T12:48:44.148Z,2.13
2023-03-04T12:51:29.040Z,1.90
2023-03-04T12:54:01.132Z,2.37
2023-03-04T12:56:54.302Z,2.10
2023-03-04T12:59:24.139Z,2.03
2023-03-04T13:02:04.988Z,1.80
2023-03-04T13:05:10.126Z,1.90
2023-03-04T13:07:42.984Z,2.03
2023-03-04T13:10:18.524Z,1.57
2023-03-04T13:12:59.774Z,2.07
2023-03-04T13:15:26.362Z,1.87
2023-03-04T13:18:02.238Z,1.90
2023-03-04T13:20:40.900Z,2.00
2023-03-04T13:23:13.532Z,2.20
2023-03-04T13:25:45.923Z,2.00
2023-03-04T13:28:19.283Z,1.80
2023-03-04T13:30:45.868Z,2.07
2023-03-04T13:33:15.322Z,2.10
2023-03-04T13:36:02.048Z,2.40
2023-03-04T13:38:30.936Z,2.40
2023-03-04T13:41:00.958Z,2.80
2023-03-04T13:43:40.647Z,2.43
2023-03-04T13:46:19.687Z,3.03
2023-03-04T13:48:52.748Z,2.23
2023-03-04T13:51:41.694Z,2.20
2023-03-04T13:54:33.316Z,2.30
2023-03-04T13:57:20.807Z,2.07
2023-03-04T13:59:55.768Z,1.97
2023-03-04T14:02:26.081Z,2.10
2023-03-04T14:05:05.143Z,1.97
2023-03-04T14:07:37.249Z,1.43
2023-03-04T14:10:13.201Z,1.77
2023-03-04T14:12:55.912Z,2.43
2023-03-04T14:15:30.836Z,1.43
2023-03-04T14:18:03.398Z,1.40
2023-03-04T14:20:35.586Z,1.60
2023-03-04T14:23:04.962Z,1.47
2023-03-04T14:25:37.052Z,1.57
2023-03-04T14:28:11.683Z,1.80
2023-03-04T14:30:43.182Z,1.97
2023-03-04T14:33:18.189Z,2.00
2023-03-04T14:35:50.231Z,1.90
2023-03-04T14:38:22.957Z,1.80
2023-03-04T14:40:53.727Z,1.73
2023-03-04T14:43:22.934Z,1.73
2023-03-04T14:45:58.398Z,1.60
2023-03-04T14:48:29.851Z,1.67
2023-03-04T14:50:57.792Z,1.60
2023-03-04T14:53:27.624Z,1.90
2023-03-04T14:55:58.602Z,1.57
2023-03-04T14:58:34.048Z,2.00
2023-03-04T15:01:20.720Z,1.97
2023-03-04T15:04:08.030Z,1.50
2023-03-04T15:06:37.664Z,2.07
2023-03-04T15:09:18.819Z,2.07
2023-03-04T15:11:49.924Z,2.60
2023-03-04T15:14:41.292Z,2.20
2023-03-04T15:17:29.231Z,2.03
2023-03-04T15:20:07.757Z,2.23
2023-03-04T15:22:36.684Z,2.37
2023-03-04T15:25:03.878Z,2.60
2023-03-04T15:27:31.350Z,2.83
2023-03-04T15:30:02.748Z,2.40
2023-03-04T15:32:30.273Z,2.10
2023-03-04T15:34:59.030Z,2.00
2023-03-04T15:37:54.124Z,2.40
2023-03-04T15:40:28.005Z,2.50
2023-03-04T15:42:57.476Z,3.30
2023-03-04T15:45:32.920Z,2.83
2023-03-04T15:48:00.837Z,2.93
2023-03-04T15:50:29.232Z,2.53
2023-03-04T15:53:03.875Z,2.60
2023-03-04T15:55:32.184Z,2.80
2023-03-04T15:58:00.635Z,2.47
2023-03-04T16:00:30.031Z,2.30
2023-03-04T16:02:57.344Z,3.07
2023-03-04T16:05:24.038Z,2.60
2023-03-04T16:07:51.451Z,3.07
2023-03-04T16:10:22.774Z,3.47
2023-03-04T16:12:50.065Z,2.77
2023-03-04T16:15:20.015Z,2.90
2023-03-04T16:17:47.298Z,2.40
2023-03-04T16:20:17.221Z,3.20
2023-03-04T16:22:58.998Z,3.40
2023-03-04T16:25:29.595Z,3.20
2023-03-04T16:27:56.657Z,2.70
2023-03-04T16:30:26.811Z,2.63
2023-03-04T16:32:53.617Z,3.03
2023-03-04T16:35:25.341Z,2.87
2023-03-04T16:37:52.840Z,3.10
2023-03-04T16:40:28.868Z,2.90
2023-03-04T16:42:55.500Z,3.67
2023-03-04T16:45:27.390Z,3.00
2023-03-04T16:47:54.202Z,3.50
2023-03-04T16:50:28.449Z,2.63
2023-03-04T16:52:55.827Z,2.43
2023-03-04T16:55:26.375Z,2.50
2023-03-04T16:57:54.353Z,2.20
2023-03-04T17:00:27.058Z,2.33
2023-03-04T17:02:57.116Z,2.20
2023-03-04T17:05:26.422Z,2.27
2023-03-04T17:07:53.056Z,2.00
2023-03-04T17:10:20.152Z,2.30
2023-03-04T17:12:50.089Z,2.17
2023-03-04T17:15:19.978Z,2.13
2023-03-04T17:17:50.250Z,1.83
2023-03-04T17:20:18.566Z,1.97
2023-03-04T17:22:45.951Z,2.20
2023-03-04T17:25:15.995Z,1.70
2023-03-04T17:27:43.182Z,2.17
2023-03-04T17:30:12.323Z,2.00
2023-03-04T17:32:40.081Z,2.00
2023-03-04T17:35:08.607Z,1.80
2023-03-04T17:37:35.607Z,2.13
2023-03-04T17:40:08.738Z,1.70
2023-03-04T17:42:35.315Z,2.17
2023-03-04T17:45:01.874Z,1.80
2023-03-04T17:47:28.580Z,1.90
2023-03-04T17:49:57.831Z,2.07
2023-03-04T17:52:24.413Z,2.37
2023-03-04T17:54:50.986Z,2.10
2023-03-04T17:57:17.650Z,2.33
2023-03-04T17:59:44.277Z,2.13
2023-03-04T18:02:15.145Z,2.27
2023-03-04T18:04:42.723Z,2.33
2023-03-04T18:07:09.395Z,2.43
2023-03-04T18:09:35.977Z,2.57
2023-03-04T18:12:02.543Z,2.43
2023-03-04T18:14:29.134Z,3.23
2023-03-04T18:16:55.795Z,2.77
2023-03-04T18:19:22.347Z,2.50
2023-03-04T18:21:48.929Z,2.83
2023-03-04T18:24:17.110Z,2.83
2023-03-04T18:26:43.882Z,3.10
2023-03-04T18:29:10.795Z,2.87
2023-03-04T18:31:37.791Z,2.70
2023-03-04T18:34:05.133Z,2.57
2023-03-04T18:36:34.244Z,2.60
2023-03-04T18:39:21.215Z,2.43
2023-03-04T18:41:53.208Z,4.37
2023-03-04T18:44:25.955Z,2.67
2023-03-04T18:46:59.201Z,2.70
2023-03-04T18:49:28.596Z,2.20
2023-03-04T18:51:55.158Z,2.50
2023-03-04T18:54:22.428Z,2.13
2023-03-04T18:56:53.920Z,2.20
2023-03-04T18:59:25.309Z,2.23
2023-03-04T19:01:53.472Z,3.30
2023-03-04T19:04:24.179Z,2.30
2023-03-04T19:06:50.789Z,2.60
2023-03-04T19:09:17.358Z,4.30
2023-03-04T19:11:43.943Z,2.50
2023-03-04T19:14:11.763Z,2.90
2023-03-04T19:16:39.955Z,2.67
2023-03-04T19:19:07.866Z,3.20
2023-03-04T19:21:40.691Z,2.40
2023-03-04T19:24:07.522Z,3.50
2023-03-04T19:26:34.302Z,2.70
2023-03-04T19:29:01.115Z,2.83
2023-03-04T19:31:27.709Z,2.33
2023-03-04T19:33:54.250Z,2.60
2023-03-04T19:36:20.832Z,2.43
2023-03-04T19:38:47.369Z,2.20
2023-03-04T19:41:16.828Z,2.30
2023-03-04T19:43:43.840Z,2.60
2023-03-04T19:46:10.907Z,2.63
2023-03-04T19:48:39.081Z,3.23
2023-03-04T19:51:19.072Z,3.03
2023-03-04T19:53:46.210Z,3.10
2023-03-04T19:56:14.595Z,4.17
2023-03-04T19:58:41.236Z,3.37
2023-03-04T20:01:20.141Z,2.63
2023-03-04T20:03:46.660Z,2.63
2023-03-04T20:06:15.695Z,2.90
2023-03-04T20:08:42.275Z,2.87
2023-03-04T20:11:12.673Z,2.63
2023-03-04T20:13:39.264Z,3.00
2023-03-04T20:16:11.286Z,2.77
2023-03-04T20:18:39.039Z,3.00
2023-03-04T20:21:06.743Z,2.97
2023-03-04T20:23:34.132Z,3.23
2023-03-04T20:26:01.044Z,2.80
2023-03-04T20:28:31.696Z,3.10
2023-03-04T20:31:19.749Z,3.03
2023-03-04T20:33:50.436Z,3.43
2023-03-04T20:36:18.482Z,2.67
2023-03-04T20:38:45.441Z,3.17
2023-03-04T20:41:12.334Z,2.60
2023-03-04T20:43:40.630Z,3.50
2023-03-04T20:46:27.000Z,3.07
2023-03-04T20:48:54.927Z,3.47
2023-03-04T20:51:21.600Z,3.20
2023-03-04T20:53:49.280Z,3.30
2023-03-04T20:56:15.908Z,3.17
2023-03-04T20:58:46.385Z,3.37
2023-03-04T21:01:13.959Z,2.87
2023-03-04T21:03:41.274Z,3.13
2023-03-04T21:06:12.793Z,3.53
2023-03-04T21:08:42.730Z,2.90
2023-03-04T21:11:18.505Z,3.60
2023-03-04T21:13:45.246Z,3.17
2023-03-04T21:16:18.761Z,3.33
2023-03-04T21:18:45.350Z,3.43
2023-03-04T21:21:19.604Z,3.13
2023-03-04T21:23:46.747Z,2.90
2023-03-04T21:26:13.284Z,3.40
2023-03-04T21:28:39.820Z,3.40
2023-03-04T21:31:10.186Z,2.73
2023-03-04T21:33:37.056Z,3.53
2023-03-04T21:36:04.129Z,4.50
2023-03-04T21:38:30.801Z,3.00
2023-03-04T21:40:57.451Z,3.57
2023-03-04T21:43:24.161Z,3.40
2023-03-04T21:45:58.455Z,2.80
2023-03-04T21:48:25.779Z,2.90
2023-03-04T21:50:54.260Z,3.10
2023-03-04T21:53:23.666Z,3.20
2023-03-04T21:55:53.164Z,3.17
2023-03-04T21:58:20.038Z,4.43
2023-03-04T22:00:46.631Z,3.23
2023-03-04T22:03:14.300Z,3.67
2023-03-04T22:05:45.013Z,3.20
2023-03-04T22:08:16.752Z,2.60
2023-03-04T22:10:46.654Z,2.70
2023-03-04T22:13:15.472Z,2.80
2023-03-04T22:15:44.347Z,2.67
2023-03-04T22:18:13.454Z,3.00
2023-03-04T22:20:42.783Z,2.60
2023-03-04T22:23:10.059Z,3.03
2023-03-04T22:25:39.468Z,2.93
2023-03-04T22:28:06.438Z,2.30
2023-03-04T22:30:35.691Z,2.70
2023-03-04T22:33:02.476Z,2.70
2023-03-04T22:35:29.306Z,2.30
2023-03-04T22:37:55.831Z,2.80
2023-03-04T22:40:22.537Z,3.17
2023-03-04T22:42:49.854Z,8.30
2023-03-04T22:45:18.144Z,3.20
2023-03-04T22:47:52.086Z,2.60
2023-03-04T22:50:20.342Z,2.47
2023-03-04T22:52:47.737Z,2.60
2023-03-04T22:55:19.846Z,2.40
2023-03-04T22:57:46.840Z,2.57
2023-03-04T23:00:18.791Z,3.53
2023-03-04T23:02:45.561Z,3.00
2023-03-04T23:05:12.674Z,2.77
2023-03-04T23:07:39.606Z,3.87
2023-03-04T23:10:07.766Z,2.67
2023-03-04T23:12:35.413Z,2.70
2023-03-04T23:15:02.069Z,2.60
2023-03-04T23:17:28.839Z,2.73
2023-03-04T23:19:55.357Z,2.70
2023-03-04T23:22:21.992Z,2.73
2023-03-04T23:24:48.494Z,2.37
2023-03-04T23:27:15.265Z,2.70
2023-03-04T23:29:41.764Z,2.67
2023-03-04T23:32:08.571Z,2.40
2023-03-04T23:34:37.056Z,2.90
2023-03-04T23:37:03.901Z,2.57
2023-03-04T23:39:30.596Z,2.40
2023-03-04T23:41:57.233Z,2.93
2023-03-04T23:44:23.911Z,3.20
2023-03-04T23:46:50.487Z,3.17
2023-03-04T23:49:18.081Z,2.77
2023-03-04T23:51:45.321Z,2.00
2023-03-04T23:54:13.246Z,3.00
2023-03-04T23:56:40.455Z,2.33
2023-03-04T23:59:08.097Z,1.93
